sensor_id;sensor_type;location;lat;lon;timestamp;temperature;humidity
20744;DHT22;56303;52.160;-0.428;2022-12-18T00:01:25;-1.00;99.90
20744;DHT22;56303;52.160;-0.428;2022-12-18T00:03:54;-1.10;99.90
20744;DHT22;56303;52.160;-0.428;2022-12-18T00:06:22;-1.00;99.90
20744;DHT22;56303;52.160;-0.428;2022-12-18T00:08:49;-1.00;99.90
20744;DHT22;56303;52.160;-0.428;2022-12-18T00:11:19;-0.90;99.90
20744;DHT22;56303;52.160;-0.428;2022-12-18T00:13:47;-1.20;99.90
20744;DHT22;56303;52.160;-0.428;2022-12-18T00:16:20;-1.30;99.90
20744;DHT22;56303;52.160;-0.428;2022-12-18T00:18:48;-1.30;99.90
20744;DHT22;56303;52.160;-0.428;2022-12-18T00:21:16;-1.20;99.90
20744;DHT22;56303;52.160;-0.428;2022-12-18T00:23:44;-1.40;99.90
20744;DHT22;56303;52.160;-0.428;2022-12-18T00:26:19;-1.40;99.90
20744;DHT22;56303;52.160;-0.428;2022-12-18T00:28:46;-1.40;99.90
20744;DHT22;56303;52.160;-0.428;2022-12-18T00:31:19;-1.40;99.90
20744;DHT22;56303;52.160;-0.428;2022-12-18T00:33:47;-1.40;99.90
20744;DHT22;56303;52.160;-0.428;2022-12-18T00:36:21;-1.40;99.90
20744;DHT22;56303;52.160;-0.428;2022-12-18T00:38:49;-1.60;99.90
20744;DHT22;56303;52.160;-0.428;2022-12-18T00:41:17;-1.60;99.90
20744;DHT22;56303;52.160;-0.428;2022-12-18T00:44:06;-1.60;99.90
20744;DHT22;56303;52.160;-0.428;2022-12-18T00:46:33;-1.60;99.90
20744;DHT22;56303;52.160;-0.428;2022-12-18T00:49:00;-1.60;99.90
20744;DHT22;56303;52.160;-0.428;2022-12-18T00:51:27;-1.60;99.90
20744;DHT22;56303;52.160;-0.428;2022-12-18T00:53:54;-1.60;99.90
20744;DHT22;56303;52.160;-0.428;2022-12-18T00:56:21;-1.70;99.90
20744;DHT22;56303;52.160;-0.428;2022-12-18T00:58:48;-2.10;99.90
20744;DHT22;56303;52.160;-0.428;2022-12-18T01:01:16;-2.50;99.90
20744;DHT22;56303;52.160;-0.428;2022-12-18T01:03:43;-2.70;99.90
20744;DHT22;56303;52.160;-0.428;2022-12-18T01:06:13;-2.90;99.90
20744;DHT22;56303;52.160;-0.428;2022-12-18T01:08:40;-3.00;99.90
20744;DHT22;56303;52.160;-0.428;2022-12-18T01:11:13;-3.00;99.90
20744;DHT22;56303;52.160;-0.428;2022-12-18T01:13:40;-2.90;99.90
20744;DHT22;56303;52.160;-0.428;2022-12-18T01:16:07;-2.60;99.90
20744;DHT22;56303;52.160;-0.428;2022-12-18T01:18:35;-2.70;99.90
20744;DHT22;56303;52.160;-0.428;2022-12-18T01:21:07;-2.80;99.90
20744;DHT22;56303;52.160;-0.428;2022-12-18T01:23:34;-2.60;99.90
20744;DHT22;56303;52.160;-0.428;2022-12-18T01:26:06;-2.50;99.90
20744;DHT22;56303;52.160;-0.428;2022-12-18T01:28:33;-2.30;99.90
20744;DHT22;56303;52.160;-0.428;2022-12-18T01:31:22;-2.20;99.90
20744;DHT22;56303;52.160;-0.428;2022-12-18T01:33:50;-1.80;99.90
20744;DHT22;56303;52.160;-0.428;2022-12-18T01:36:18;-1.60;99.90
20744;DHT22;56303;52.160;-0.428;2022-12-18T01:38:46;-1.50;99.90
20744;DHT22;56303;52.160;-0.428;2022-12-18T01:41:17;-1.30;99.90
20744;DHT22;56303;52.160;-0.428;2022-12-18T01:46:20;-1.60;99.90
20744;DHT22;56303;52.160;-0.428;2022-12-18T01:48:50;-1.60;99.90
20744;DHT22;56303;52.160;-0.428;2022-12-18T01:51:17;-1.50;99.90
20744;DHT22;56303;52.160;-0.428;2022-12-18T01:53:45;-1.40;99.90
20744;DHT22;56303;52.160;-0.428;2022-12-18T01:56:18;-1.30;99.90
20744;DHT22;56303;52.160;-0.428;2022-12-18T02:01:24;-1.10;99.90
20744;DHT22;56303;52.160;-0.428;2022-12-18T02:03:52;-1.00;99.90
20744;DHT22;56303;52.160;-0.428;2022-12-18T02:06:40;-0.90;99.90
20744;DHT22;56303;52.160;-0.428;2022-12-18T02:09:24;-0.90;99.90
20744;DHT22;56303;52.160;-0.428;2022-12-18T02:15:03;-1.10;99.90
20744;DHT22;56303;52.160;-0.428;2022-12-18T02:21:11;-1.10;99.90
20744;DHT22;56303;52.160;-0.428;2022-12-18T02:23:14;-1.40;99.90
20744;DHT22;56303;52.160;-0.428;2022-12-18T02:28:47;-1.30;99.90
20744;DHT22;56303;52.160;-0.428;2022-12-18T02:31:20;-1.50;99.90
20744;DHT22;56303;52.160;-0.428;2022-12-18T02:33:49;-1.60;99.90
20744;DHT22;56303;52.160;-0.428;2022-12-18T02:36:18;-1.80;99.90
20744;DHT22;56303;52.160;-0.428;2022-12-18T02:38:46;-2.40;99.90
20744;DHT22;56303;52.160;-0.428;2022-12-18T02:41:14;-2.80;99.90
20744;DHT22;56303;52.160;-0.428;2022-12-18T02:43:53;-3.10;99.90
20744;DHT22;56303;52.160;-0.428;2022-12-18T02:46:29;-3.30;99.90
20744;DHT22;56303;52.160;-0.428;2022-12-18T02:51:50;-3.40;99.90
20744;DHT22;56303;52.160;-0.428;2022-12-18T02:54:37;-3.10;99.90
20744;DHT22;56303;52.160;-0.428;2022-12-18T03:02:38;-2.70;99.90
20744;DHT22;56303;52.160;-0.428;2022-12-18T03:07:50;-2.30;99.90
20744;DHT22;56303;52.160;-0.428;2022-12-18T03:10:24;-2.50;99.90
20744;DHT22;56303;52.160;-0.428;2022-12-18T03:12:58;-2.30;99.90
20744;DHT22;56303;52.160;-0.428;2022-12-18T03:15:34;-2.10;99.90
20744;DHT22;56303;52.160;-0.428;2022-12-18T03:18:06;-2.30;99.90
20744;DHT22;56303;52.160;-0.428;2022-12-18T03:20:37;-2.70;99.90
20744;DHT22;56303;52.160;-0.428;2022-12-18T03:23:15;-3.00;99.90
20744;DHT22;56303;52.160;-0.428;2022-12-18T03:25:44;-3.10;99.90
20744;DHT22;56303;52.160;-0.428;2022-12-18T03:28:20;-3.50;99.90
20744;DHT22;56303;52.160;-0.428;2022-12-18T03:30:52;-3.10;99.90
20744;DHT22;56303;52.160;-0.428;2022-12-18T03:33:29;-3.20;99.90
20744;DHT22;56303;52.160;-0.428;2022-12-18T03:35:57;-3.10;99.90
20744;DHT22;56303;52.160;-0.428;2022-12-18T03:38:24;-2.60;99.90
20744;DHT22;56303;52.160;-0.428;2022-12-18T03:43:52;-3.10;99.90
20744;DHT22;56303;52.160;-0.428;2022-12-18T03:46:48;-3.10;99.90
20744;DHT22;56303;52.160;-0.428;2022-12-18T03:52:13;-2.90;99.90
20744;DHT22;56303;52.160;-0.428;2022-12-18T03:54:43;-2.80;99.90
20744;DHT22;56303;52.160;-0.428;2022-12-18T03:57:18;-2.90;99.90
20744;DHT22;56303;52.160;-0.428;2022-12-18T03:59:47;-2.80;99.90
20744;DHT22;56303;52.160;-0.428;2022-12-18T04:02:17;-2.70;99.90
20744;DHT22;56303;52.160;-0.428;2022-12-18T04:04:45;-2.70;99.90
20744;DHT22;56303;52.160;-0.428;2022-12-18T04:07:13;-2.50;99.90
20744;DHT22;56303;52.160;-0.428;2022-12-18T04:09:41;-2.40;99.90
20744;DHT22;56303;52.160;-0.428;2022-12-18T04:12:09;-2.40;99.90
20744;DHT22;56303;52.160;-0.428;2022-12-18T04:14:36;-2.50;99.90
20744;DHT22;56303;52.160;-0.428;2022-12-18T04:17:03;-2.40;99.90
20744;DHT22;56303;52.160;-0.428;2022-12-18T04:19:30;-2.40;99.90
20744;DHT22;56303;52.160;-0.428;2022-12-18T04:21:57;-2.20;99.90
20744;DHT22;56303;52.160;-0.428;2022-12-18T04:24:24;-2.30;99.90
20744;DHT22;56303;52.160;-0.428;2022-12-18T04:26:50;-2.30;99.90
20744;DHT22;56303;52.160;-0.428;2022-12-18T04:29:17;-2.20;99.90
20744;DHT22;56303;52.160;-0.428;2022-12-18T04:31:44;-2.00;99.90
20744;DHT22;56303;52.160;-0.428;2022-12-18T04:34:11;-1.60;99.90
20744;DHT22;56303;52.160;-0.428;2022-12-18T04:36:38;-1.30;99.90
20744;DHT22;56303;52.160;-0.428;2022-12-18T04:39:04;-1.30;99.90
20744;DHT22;56303;52.160;-0.428;2022-12-18T04:41:31;-1.50;99.90
20744;DHT22;56303;52.160;-0.428;2022-12-18T04:43:58;-1.60;99.90
20744;DHT22;56303;52.160;-0.428;2022-12-18T04:46:25;-1.80;99.90
20744;DHT22;56303;52.160;-0.428;2022-12-18T04:48:52;-2.10;99.90
20744;DHT22;56303;52.160;-0.428;2022-12-18T04:51:18;-2.20;99.90
20744;DHT22;56303;52.160;-0.428;2022-12-18T04:53:53;-2.30;99.90
20744;DHT22;56303;52.160;-0.428;2022-12-18T04:56:20;-2.40;99.90
20744;DHT22;56303;52.160;-0.428;2022-12-18T04:58:47;-2.30;99.90
20744;DHT22;56303;52.160;-0.428;2022-12-18T05:01:15;-2.20;99.90
20744;DHT22;56303;52.160;-0.428;2022-12-18T05:03:43;-2.10;99.90
20744;DHT22;56303;52.160;-0.428;2022-12-18T05:06:11;-2.10;99.90
20744;DHT22;56303;52.160;-0.428;2022-12-18T05:08:38;-2.10;99.90
20744;DHT22;56303;52.160;-0.428;2022-12-18T05:11:15;-2.20;99.90
20744;DHT22;56303;52.160;-0.428;2022-12-18T05:13:43;-1.90;99.90
20744;DHT22;56303;52.160;-0.428;2022-12-18T05:16:11;-2.30;99.90
20744;DHT22;56303;52.160;-0.428;2022-12-18T05:18:38;-2.30;99.90
20744;DHT22;56303;52.160;-0.428;2022-12-18T05:21:05;-2.30;99.90
20744;DHT22;56303;52.160;-0.428;2022-12-18T05:23:36;-2.40;99.90
20744;DHT22;56303;52.160;-0.428;2022-12-18T05:26:05;-2.40;99.90
20744;DHT22;56303;52.160;-0.428;2022-12-18T05:28:34;-2.10;99.90
20744;DHT22;56303;52.160;-0.428;2022-12-18T05:31:03;-2.10;99.90
20744;DHT22;56303;52.160;-0.428;2022-12-18T05:33:32;-2.10;99.90
20744;DHT22;56303;52.160;-0.428;2022-12-18T05:36:01;-2.20;99.90
20744;DHT22;56303;52.160;-0.428;2022-12-18T05:38:29;-2.20;99.90
20744;DHT22;56303;52.160;-0.428;2022-12-18T05:40:57;-2.20;99.90
20744;DHT22;56303;52.160;-0.428;2022-12-18T05:43:25;-2.10;99.90
20744;DHT22;56303;52.160;-0.428;2022-12-18T05:45:53;-1.90;99.90
20744;DHT22;56303;52.160;-0.428;2022-12-18T05:48:20;-1.80;99.90
20744;DHT22;56303;52.160;-0.428;2022-12-18T05:50:49;-1.50;99.90
20744;DHT22;56303;52.160;-0.428;2022-12-18T05:53:20;-1.30;99.90
20744;DHT22;56303;52.160;-0.428;2022-12-18T05:55:47;-1.00;99.90
20744;DHT22;56303;52.160;-0.428;2022-12-18T05:58:14;-0.70;99.90
20744;DHT22;56303;52.160;-0.428;2022-12-18T06:00:44;-0.50;99.90
20744;DHT22;56303;52.160;-0.428;2022-12-18T06:03:11;-0.80;99.90
20744;DHT22;56303;52.160;-0.428;2022-12-18T06:05:43;-0.90;99.90
20744;DHT22;56303;52.160;-0.428;2022-12-18T06:08:12;-1.10;99.90
20744;DHT22;56303;52.160;-0.428;2022-12-18T06:10:39;-1.10;99.90
20744;DHT22;56303;52.160;-0.428;2022-12-18T06:13:06;-1.10;99.90
20744;DHT22;56303;52.160;-0.428;2022-12-18T06:15:36;-0.90;99.90
20744;DHT22;56303;52.160;-0.428;2022-12-18T06:18:04;-0.80;99.90
20744;DHT22;56303;52.160;-0.428;2022-12-18T06:20:31;-0.80;99.90
20744;DHT22;56303;52.160;-0.428;2022-12-18T06:22:59;-0.50;99.90
20744;DHT22;56303;52.160;-0.428;2022-12-18T06:25:26;-0.50;99.90
20744;DHT22;56303;52.160;-0.428;2022-12-18T06:27:53;-0.60;99.90
20744;DHT22;56303;52.160;-0.428;2022-12-18T06:30:20;-0.60;99.90
20744;DHT22;56303;52.160;-0.428;2022-12-18T06:32:50;-0.50;99.90
20744;DHT22;56303;52.160;-0.428;2022-12-18T06:35:22;-0.50;99.90
20744;DHT22;56303;52.160;-0.428;2022-12-18T06:37:49;-0.50;99.90
20744;DHT22;56303;52.160;-0.428;2022-12-18T06:40:16;-0.50;99.90
20744;DHT22;56303;52.160;-0.428;2022-12-18T06:42:43;-0.30;99.90
20744;DHT22;56303;52.160;-0.428;2022-12-18T06:45:10;-0.20;99.90
20744;DHT22;56303;52.160;-0.428;2022-12-18T06:47:38;-0.10;99.90
20744;DHT22;56303;52.160;-0.428;2022-12-18T06:50:05;-0.10;99.90
20744;DHT22;56303;52.160;-0.428;2022-12-18T06:52:32;-0.30;99.90
20744;DHT22;56303;52.160;-0.428;2022-12-18T06:55:00;-0.10;99.90
20744;DHT22;56303;52.160;-0.428;2022-12-18T06:57:26;-0.20;99.90
20744;DHT22;56303;52.160;-0.428;2022-12-18T06:59:53;-0.20;99.90
20744;DHT22;56303;52.160;-0.428;2022-12-18T07:02:20;0.10;99.90
20744;DHT22;56303;52.160;-0.428;2022-12-18T07:04:47;0.20;99.90
20744;DHT22;56303;52.160;-0.428;2022-12-18T07:07:13;0.40;99.90
20744;DHT22;56303;52.160;-0.428;2022-12-18T07:09:40;0.50;99.90
20744;DHT22;56303;52.160;-0.428;2022-12-18T07:12:07;0.40;99.90
20744;DHT22;56303;52.160;-0.428;2022-12-18T07:14:34;0.50;99.90
20744;DHT22;56303;52.160;-0.428;2022-12-18T07:17:01;0.80;99.90
20744;DHT22;56303;52.160;-0.428;2022-12-18T07:19:29;1.00;99.90
20744;DHT22;56303;52.160;-0.428;2022-12-18T07:21:56;1.20;99.90
20744;DHT22;56303;52.160;-0.428;2022-12-18T07:24:23;1.30;99.90
20744;DHT22;56303;52.160;-0.428;2022-12-18T07:26:50;1.30;99.90
20744;DHT22;56303;52.160;-0.428;2022-12-18T07:29:16;1.20;99.90
20744;DHT22;56303;52.160;-0.428;2022-12-18T07:31:43;1.00;99.90
20744;DHT22;56303;52.160;-0.428;2022-12-18T07:34:14;0.80;99.90
20744;DHT22;56303;52.160;-0.428;2022-12-18T07:36:41;0.40;99.90
20744;DHT22;56303;52.160;-0.428;2022-12-18T07:39:10;0.30;99.90
20744;DHT22;56303;52.160;-0.428;2022-12-18T07:41:37;0.10;99.90
20744;DHT22;56303;52.160;-0.428;2022-12-18T07:44:12;-0.20;99.90
20744;DHT22;56303;52.160;-0.428;2022-12-18T07:46:39;-0.20;99.90
20744;DHT22;56303;52.160;-0.428;2022-12-18T07:49:06;-0.20;99.90
20744;DHT22;56303;52.160;-0.428;2022-12-18T07:51:33;0.00;99.90
20744;DHT22;56303;52.160;-0.428;2022-12-18T07:53:59;0.30;99.90
20744;DHT22;56303;52.160;-0.428;2022-12-18T07:56:26;0.40;99.90
20744;DHT22;56303;52.160;-0.428;2022-12-18T07:58:56;0.30;99.90
20744;DHT22;56303;52.160;-0.428;2022-12-18T08:01:23;0.20;99.90
20744;DHT22;56303;52.160;-0.428;2022-12-18T08:03:50;0.20;99.90
20744;DHT22;56303;52.160;-0.428;2022-12-18T08:06:18;0.10;99.90
20744;DHT22;56303;52.160;-0.428;2022-12-18T08:08:51;0.10;99.90
20744;DHT22;56303;52.160;-0.428;2022-12-18T08:11:18;0.10;99.90
20744;DHT22;56303;52.160;-0.428;2022-12-18T08:13:47;-0.20;99.90
20744;DHT22;56303;52.160;-0.428;2022-12-18T08:16:14;-0.20;99.90
20744;DHT22;56303;52.160;-0.428;2022-12-18T08:18:41;0.00;99.90
20744;DHT22;56303;52.160;-0.428;2022-12-18T08:21:10;-0.10;99.90
20744;DHT22;56303;52.160;-0.428;2022-12-18T08:23:37;-0.20;99.90
20744;DHT22;56303;52.160;-0.428;2022-12-18T08:26:10;-0.20;99.90
20744;DHT22;56303;52.160;-0.428;2022-12-18T08:28:37;-0.10;99.90
20744;DHT22;56303;52.160;-0.428;2022-12-18T08:31:05;0.10;99.90
20744;DHT22;56303;52.160;-0.428;2022-12-18T08:33:32;0.50;99.90
20744;DHT22;56303;52.160;-0.428;2022-12-18T08:36:00;0.60;99.90
20744;DHT22;56303;52.160;-0.428;2022-12-18T08:38:28;0.80;99.90
20744;DHT22;56303;52.160;-0.428;2022-12-18T08:41:06;0.90;99.90
20744;DHT22;56303;52.160;-0.428;2022-12-18T08:43:33;1.30;99.90
20744;DHT22;56303;52.160;-0.428;2022-12-18T08:46:20;1.30;99.90
20744;DHT22;56303;52.160;-0.428;2022-12-18T08:48:48;1.60;99.90
20744;DHT22;56303;52.160;-0.428;2022-12-18T08:51:17;1.80;99.90
20744;DHT22;56303;52.160;-0.428;2022-12-18T08:53:44;2.10;99.90
20744;DHT22;56303;52.160;-0.428;2022-12-18T08:56:12;1.60;99.90
20744;DHT22;56303;52.160;-0.428;2022-12-18T08:58:40;1.40;99.90
20744;DHT22;56303;52.160;-0.428;2022-12-18T09:01:10;1.30;99.90
20744;DHT22;56303;52.160;-0.428;2022-12-18T09:03:37;1.70;99.90
20744;DHT22;56303;52.160;-0.428;2022-12-18T09:06:05;1.40;99.90
20744;DHT22;56303;52.160;-0.428;2022-12-18T09:08:32;1.40;99.90
20744;DHT22;56303;52.160;-0.428;2022-12-18T09:11:03;1.60;99.90
20744;DHT22;56303;52.160;-0.428;2022-12-18T09:13:30;1.30;99.90
20744;DHT22;56303;52.160;-0.428;2022-12-18T09:15:57;1.50;99.90
20744;DHT22;56303;52.160;-0.428;2022-12-18T09:18:24;1.90;99.90
20744;DHT22;56303;52.160;-0.428;2022-12-18T09:20:51;1.10;99.90
20744;DHT22;56303;52.160;-0.428;2022-12-18T09:23:20;0.70;99.90
20744;DHT22;56303;52.160;-0.428;2022-12-18T09:25:47;0.40;99.90
20744;DHT22;56303;52.160;-0.428;2022-12-18T09:28:18;0.20;99.90
20744;DHT22;56303;52.160;-0.428;2022-12-18T09:30:48;0.70;99.90
20744;DHT22;56303;52.160;-0.428;2022-12-18T09:33:16;1.30;99.90
20744;DHT22;56303;52.160;-0.428;2022-12-18T09:35:44;1.20;99.90
20744;DHT22;56303;52.160;-0.428;2022-12-18T09:38:14;1.40;99.90
20744;DHT22;56303;52.160;-0.428;2022-12-18T09:40:43;1.70;99.90
20744;DHT22;56303;52.160;-0.428;2022-12-18T09:43:28;1.80;99.90
20744;DHT22;56303;52.160;-0.428;2022-12-18T09:46:06;1.90;99.90
20744;DHT22;56303;52.160;-0.428;2022-12-18T09:48:45;2.00;99.90
20744;DHT22;56303;52.160;-0.428;2022-12-18T09:51:17;2.30;99.90
20744;DHT22;56303;52.160;-0.428;2022-12-18T09:53:51;2.30;99.90
20744;DHT22;56303;52.160;-0.428;2022-12-18T09:56:20;2.40;99.90
20744;DHT22;56303;52.160;-0.428;2022-12-18T09:58:52;2.20;99.90
20744;DHT22;56303;52.160;-0.428;2022-12-18T10:01:22;2.30;99.90
20744;DHT22;56303;52.160;-0.428;2022-12-18T10:03:52;2.20;99.90
20744;DHT22;56303;52.160;-0.428;2022-12-18T10:06:35;1.90;99.90
20744;DHT22;56303;52.160;-0.428;2022-12-18T10:09:22;2.00;99.90
20744;DHT22;56303;52.160;-0.428;2022-12-18T10:17:36;1.50;99.90
20744;DHT22;56303;52.160;-0.428;2022-12-18T10:25:28;1.20;99.90
20744;DHT22;56303;52.160;-0.428;2022-12-18T10:28:07;1.40;99.90
20744;DHT22;56303;52.160;-0.428;2022-12-18T10:30:35;1.30;99.90
20744;DHT22;56303;52.160;-0.428;2022-12-18T10:33:03;1.40;99.90
20744;DHT22;56303;52.160;-0.428;2022-12-18T10:35:29;1.30;99.90
20744;DHT22;56303;52.160;-0.428;2022-12-18T10:38:07;1.40;99.90
20744;DHT22;56303;52.160;-0.428;2022-12-18T10:41:06;1.10;99.90
20744;DHT22;56303;52.160;-0.428;2022-12-18T10:43:39;1.60;99.90
20744;DHT22;56303;52.160;-0.428;2022-12-18T10:48:40;1.90;99.90
20744;DHT22;56303;52.160;-0.428;2022-12-18T10:51:20;2.10;99.90
20744;DHT22;56303;52.160;-0.428;2022-12-18T10:53:59;2.10;99.90
20744;DHT22;56303;52.160;-0.428;2022-12-18T10:56:30;2.20;99.90
20744;DHT22;56303;52.160;-0.428;2022-12-18T10:59:05;2.40;99.90
20744;DHT22;56303;52.160;-0.428;2022-12-18T11:01:56;2.20;99.90
20744;DHT22;56303;52.160;-0.428;2022-12-18T11:04:32;2.00;99.90
20744;DHT22;56303;52.160;-0.428;2022-12-18T11:07:06;2.20;99.90
20744;DHT22;56303;52.160;-0.428;2022-12-18T11:09:35;2.00;99.90
20744;DHT22;56303;52.160;-0.428;2022-12-18T11:12:05;1.80;99.90
20744;DHT22;56303;52.160;-0.428;2022-12-18T11:14:54;1.80;99.90
20744;DHT22;56303;52.160;-0.428;2022-12-18T11:17:32;2.10;99.90
20744;DHT22;56303;52.160;-0.428;2022-12-18T11:20:07;1.90;99.90
20744;DHT22;56303;52.160;-0.428;2022-12-18T11:23:04;1.90;99.90
20744;DHT22;56303;52.160;-0.428;2022-12-18T11:25:33;1.70;99.90
20744;DHT22;56303;52.160;-0.428;2022-12-18T11:28:26;1.70;99.90
20744;DHT22;56303;52.160;-0.428;2022-12-18T11:31:26;2.00;99.90
20744;DHT22;56303;52.160;-0.428;2022-12-18T11:36:58;1.60;99.90
20744;DHT22;56303;52.160;-0.428;2022-12-18T11:42:08;2.00;99.90
20744;DHT22;56303;52.160;-0.428;2022-12-18T11:53:12;2.40;99.90
20744;DHT22;56303;52.160;-0.428;2022-12-18T11:55:48;2.60;99.90
20744;DHT22;56303;52.160;-0.428;2022-12-18T11:58:46;2.60;99.90
20744;DHT22;56303;52.160;-0.428;2022-12-18T12:09:46;2.90;99.90
20744;DHT22;56303;52.160;-0.428;2022-12-18T12:12:21;3.10;99.90
20744;DHT22;56303;52.160;-0.428;2022-12-18T12:15:06;3.20;99.90
20744;DHT22;56303;52.160;-0.428;2022-12-18T12:17:48;3.10;99.90
20744;DHT22;56303;52.160;-0.428;2022-12-18T12:21:14;3.10;99.90
20744;DHT22;56303;52.160;-0.428;2022-12-18T12:26:08;3.10;99.90
20744;DHT22;56303;52.160;-0.428;2022-12-18T12:36:39;3.10;99.90
20744;DHT22;56303;52.160;-0.428;2022-12-18T12:39:14;2.90;99.90
20744;DHT22;56303;52.160;-0.428;2022-12-18T12:41:45;3.10;99.90
20744;DHT22;56303;52.160;-0.428;2022-12-18T12:44:37;3.20;99.90
20744;DHT22;56303;52.160;-0.428;2022-12-18T12:47:18;2.90;99.90
20744;DHT22;56303;52.160;-0.428;2022-12-18T12:49:48;2.80;99.90
20744;DHT22;56303;52.160;-0.428;2022-12-18T12:52:39;2.80;99.90
20744;DHT22;56303;52.160;-0.428;2022-12-18T12:55:17;3.00;99.90
20744;DHT22;56303;52.160;-0.428;2022-12-18T12:58:14;3.00;99.90
20744;DHT22;56303;52.160;-0.428;2022-12-18T13:01:13;3.00;99.90
20744;DHT22;56303;52.160;-0.428;2022-12-18T13:03:57;3.20;99.90
20744;DHT22;56303;52.160;-0.428;2022-12-18T13:06:52;3.20;99.90
20744;DHT22;56303;52.160;-0.428;2022-12-18T13:09:21;3.00;99.90
20744;DHT22;56303;52.160;-0.428;2022-12-18T13:11:48;2.80;99.90
20744;DHT22;56303;52.160;-0.428;2022-12-18T13:14:39;2.80;99.90
20744;DHT22;56303;52.160;-0.428;2022-12-18T13:20:03;3.70;99.90
20744;DHT22;56303;52.160;-0.428;2022-12-18T13:22:43;3.30;99.90
20744;DHT22;56303;52.160;-0.428;2022-12-18T13:25:33;3.30;99.90
20744;DHT22;56303;52.160;-0.428;2022-12-18T13:28:06;3.10;99.90
20744;DHT22;56303;52.160;-0.428;2022-12-18T13:35:41;3.20;99.90
20744;DHT22;56303;52.160;-0.428;2022-12-18T13:38:23;3.30;99.90
20744;DHT22;56303;52.160;-0.428;2022-12-18T13:49:01;3.30;99.90
20744;DHT22;56303;52.160;-0.428;2022-12-18T13:51:31;3.30;99.90
20744;DHT22;56303;52.160;-0.428;2022-12-18T13:54:06;3.30;99.90
20744;DHT22;56303;52.160;-0.428;2022-12-18T13:56:43;3.00;99.90
20744;DHT22;56303;52.160;-0.428;2022-12-18T13:59:12;3.10;99.90
20744;DHT22;56303;52.160;-0.428;2022-12-18T14:01:47;3.30;99.90
20744;DHT22;56303;52.160;-0.428;2022-12-18T14:04:40;3.30;99.90
20744;DHT22;56303;52.160;-0.428;2022-12-18T14:07:21;2.90;99.90
20744;DHT22;56303;52.160;-0.428;2022-12-18T14:10:33;3.00;99.90
20744;DHT22;56303;52.160;-0.428;2022-12-18T14:13:06;2.60;99.90
20744;DHT22;56303;52.160;-0.428;2022-12-18T14:15:40;2.60;99.90
20744;DHT22;56303;52.160;-0.428;2022-12-18T14:20:48;2.70;99.90
20744;DHT22;56303;52.160;-0.428;2022-12-18T14:23:30;2.70;99.90
20744;DHT22;56303;52.160;-0.428;2022-12-18T14:25:58;2.70;99.90
20744;DHT22;56303;52.160;-0.428;2022-12-18T14:28:31;2.60;99.90
20744;DHT22;56303;52.160;-0.428;2022-12-18T14:30:58;2.80;99.90
20744;DHT22;56303;52.160;-0.428;2022-12-18T14:33:26;3.10;99.90
20744;DHT22;56303;52.160;-0.428;2022-12-18T14:35:57;3.20;99.90
20744;DHT22;56303;52.160;-0.428;2022-12-18T14:38:51;3.10;99.90
20744;DHT22;56303;52.160;-0.428;2022-12-18T14:41:20;2.90;99.90
20744;DHT22;56303;52.160;-0.428;2022-12-18T14:43:50;3.20;99.90
20744;DHT22;56303;52.160;-0.428;2022-12-18T14:46:34;3.30;99.90
20744;DHT22;56303;52.160;-0.428;2022-12-18T14:49:31;3.50;99.90
20744;DHT22;56303;52.160;-0.428;2022-12-18T14:52:00;3.30;99.90
20744;DHT22;56303;52.160;-0.428;2022-12-18T14:54:28;3.40;99.90
20744;DHT22;56303;52.160;-0.428;2022-12-18T14:57:21;3.40;99.90
20744;DHT22;56303;52.160;-0.428;2022-12-18T14:59:49;3.30;99.90
20744;DHT22;56303;52.160;-0.428;2022-12-18T15:02:24;3.20;99.90
20744;DHT22;56303;52.160;-0.428;2022-12-18T15:05:17;3.00;99.90
20744;DHT22;56303;52.160;-0.428;2022-12-18T15:07:46;3.00;99.90
20744;DHT22;56303;52.160;-0.428;2022-12-18T15:10:19;3.00;99.90
20744;DHT22;56303;52.160;-0.428;2022-12-18T15:20:44;2.90;99.90
20744;DHT22;56303;52.160;-0.428;2022-12-18T15:23:25;3.00;99.90
20744;DHT22;56303;52.160;-0.428;2022-12-18T15:26:03;2.90;99.90
20744;DHT22;56303;52.160;-0.428;2022-12-18T15:31:57;3.30;99.90
20744;DHT22;56303;52.160;-0.428;2022-12-18T15:36:21;3.10;99.90
20744;DHT22;56303;52.160;-0.428;2022-12-18T15:38:54;3.20;99.90
20744;DHT22;56303;52.160;-0.428;2022-12-18T15:41:32;3.20;99.90
20744;DHT22;56303;52.160;-0.428;2022-12-18T15:44:14;3.00;99.90
20744;DHT22;56303;52.160;-0.428;2022-12-18T15:46:47;3.30;99.90
20744;DHT22;56303;52.160;-0.428;2022-12-18T15:49:14;3.40;99.90
20744;DHT22;56303;52.160;-0.428;2022-12-18T15:51:40;3.60;99.90
20744;DHT22;56303;52.160;-0.428;2022-12-18T15:54:11;3.60;99.90
20744;DHT22;56303;52.160;-0.428;2022-12-18T15:56:39;3.50;99.90
20744;DHT22;56303;52.160;-0.428;2022-12-18T15:59:25;3.40;99.90
20744;DHT22;56303;52.160;-0.428;2022-12-18T16:01:52;3.30;99.90
20744;DHT22;56303;52.160;-0.428;2022-12-18T16:04:21;3.60;99.90
20744;DHT22;56303;52.160;-0.428;2022-12-18T16:06:49;3.70;99.90
20744;DHT22;56303;52.160;-0.428;2022-12-18T16:09:36;3.60;99.90
20744;DHT22;56303;52.160;-0.428;2022-12-18T16:12:04;3.40;99.90
20744;DHT22;56303;52.160;-0.428;2022-12-18T16:14:32;3.30;99.90
20744;DHT22;56303;52.160;-0.428;2022-12-18T16:17:03;3.40;99.90
20744;DHT22;56303;52.160;-0.428;2022-12-18T16:19:33;3.40;99.90
20744;DHT22;56303;52.160;-0.428;2022-12-18T16:22:01;3.50;99.90
20744;DHT22;56303;52.160;-0.428;2022-12-18T16:24:32;3.40;99.90
20744;DHT22;56303;52.160;-0.428;2022-12-18T16:27:00;3.50;99.90
20744;DHT22;56303;52.160;-0.428;2022-12-18T16:29:30;3.70;99.90
20744;DHT22;56303;52.160;-0.428;2022-12-18T16:32:00;3.60;99.90
20744;DHT22;56303;52.160;-0.428;2022-12-18T16:34:28;3.70;99.90
20744;DHT22;56303;52.160;-0.428;2022-12-18T16:37:01;3.90;99.90
20744;DHT22;56303;52.160;-0.428;2022-12-18T16:39:32;3.90;99.90
20744;DHT22;56303;52.160;-0.428;2022-12-18T16:42:03;3.70;99.90
20744;DHT22;56303;52.160;-0.428;2022-12-18T16:44:32;3.90;99.90
20744;DHT22;56303;52.160;-0.428;2022-12-18T16:46:59;3.70;99.90
20744;DHT22;56303;52.160;-0.428;2022-12-18T16:49:29;3.80;99.90
20744;DHT22;56303;52.160;-0.428;2022-12-18T16:51:56;3.70;99.90
20744;DHT22;56303;52.160;-0.428;2022-12-18T16:54:23;3.70;99.90
20744;DHT22;56303;52.160;-0.428;2022-12-18T16:56:50;3.80;99.90
20744;DHT22;56303;52.160;-0.428;2022-12-18T16:59:17;4.00;99.90
20744;DHT22;56303;52.160;-0.428;2022-12-18T17:01:45;4.00;99.90
20744;DHT22;56303;52.160;-0.428;2022-12-18T17:04:13;4.10;99.90
20744;DHT22;56303;52.160;-0.428;2022-12-18T17:06:44;3.90;99.90
20744;DHT22;56303;52.160;-0.428;2022-12-18T17:09:13;3.90;99.90
20744;DHT22;56303;52.160;-0.428;2022-12-18T17:11:42;4.10;99.90
20744;DHT22;56303;52.160;-0.428;2022-12-18T17:14:15;4.00;99.90
20744;DHT22;56303;52.160;-0.428;2022-12-18T17:16:49;4.10;99.90
20744;DHT22;56303;52.160;-0.428;2022-12-18T17:19:37;4.10;99.90
20744;DHT22;56303;52.160;-0.428;2022-12-18T17:22:04;4.20;99.90
20744;DHT22;56303;52.160;-0.428;2022-12-18T17:24:31;4.20;99.90
20744;DHT22;56303;52.160;-0.428;2022-12-18T17:27:01;4.10;99.90
20744;DHT22;56303;52.160;-0.428;2022-12-18T17:29:31;4.20;99.90
20744;DHT22;56303;52.160;-0.428;2022-12-18T17:31:59;4.40;99.90
20744;DHT22;56303;52.160;-0.428;2022-12-18T17:34:26;4.30;99.90
20744;DHT22;56303;52.160;-0.428;2022-12-18T17:36:53;4.30;99.90
20744;DHT22;56303;52.160;-0.428;2022-12-18T17:39:21;4.40;99.90
20744;DHT22;56303;52.160;-0.428;2022-12-18T17:41:48;4.80;99.90
20744;DHT22;56303;52.160;-0.428;2022-12-18T17:44:16;4.60;99.90